Time;durP1;ratioP1;P1;durP2;ratioP2;P2;SDS_P1;SDS_P2;PMS_P1;PMS_P2;Temp;Humidity;BMP_temperature;BMP_pressure;BME280_temperature;BME280_humidity;BME280_pressure;Samples;Min_cycle;Max_cycle;Signal;HPM_P1;HPM_P2
2022/01/25 00:29:59;;;;;;;18.00;6.45;;;;;;;-10.77;74.83;98382.56;5063137;28;20068;-61
2022/01/25 00:32:21;;;;;;;23.10;6.25;;;;;;;-10.78;74.48;98405.00;5062921;28;20049;-61
2022/01/25 00:34:48;;;;;;;19.38;7.70;;;;;;;-10.77;74.02;98395.94;5062729;28;20050;-62
2022/01/25 00:37:15;;;;;;;15.48;4.78;;;;;;;-10.65;74.04;98399.69;5061591;28;20056;-60
2022/01/25 00:39:42;;;;;;;19.98;5.68;;;;;;;-10.89;72.70;98398.41;5064842;28;20055;-61
2022/01/25 00:42:09;;;;;;;26.23;9.05;;;;;;;-11.17;72.72;98405.69;5066532;28;20063;-61
2022/01/25 00:44:39;;;;;;;22.75;8.63;;;;;;;-11.20;74.16;98406.94;5064941;28;20082;-60
2022/01/25 00:47:07;;;;;;;24.33;9.15;;;;;;;-11.10;72.30;98407.38;5066551;28;20052;-61
2022/01/25 00:49:38;;;;;;;30.95;10.20;;;;;;;-11.17;73.17;98401.19;5065043;28;20049;-60
2022/01/25 00:54:57;;;;;;;41.35;16.15;;;;;;;-11.16;74.38;98392.13;5083106;28;20060;-59
2022/01/25 00:57:25;;;;;;;43.22;13.38;;;;;;;-10.94;74.95;98387.47;5086431;28;20052;-60
2022/01/25 00:59:52;;;;;;;37.72;13.90;;;;;;;-10.90;74.81;98385.19;5086620;28;20058;-61
2022/01/25 01:02:18;;;;;;;35.53;10.82;;;;;;;-10.94;74.92;98358.03;5086443;28;20078;-60
2022/01/25 01:04:49;;;;;;;36.90;12.43;;;;;;;-10.93;74.30;98390.94;5086489;28;20059;-61
2022/01/25 01:07:16;;;;;;;42.40;14.77;;;;;;;-11.02;74.26;98333.31;5086539;28;20044;-60
2022/01/25 01:09:47;;;;;;;21.08;7.68;;;;;;;-12.03;72.95;98288.00;5086470;28;20240;-63
2022/01/25 01:13:21;;;;;;;24.38;6.15;;;;;;;-11.71;72.57;98365.59;5086091;28;20525;-61
2022/01/25 01:43:59;;;;;;;30.98;7.13;;;;;;;-12.52;80.15;98365.50;5085565;28;20538;-62
2022/01/25 01:46:43;;;;;;;24.13;7.97;;;;;;;-12.31;80.94;98373.44;5084010;28;20099;-61
2022/01/25 01:49:11;;;;;;;26.38;7.70;;;;;;;-12.63;78.66;98262.78;5085471;28;20090;-60
2022/01/25 01:51:42;;;;;;;4.93;3.30;;;;;;;-12.24;78.55;98366.31;5085290;28;20099;-60
2022/01/25 01:54:12;;;;;;;20.80;7.23;;;;;;;-12.58;79.23;98333.41;5067852;28;20157;-63
2022/01/25 01:56:41;;;;;;;25.63;7.30;;;;;;;-12.05;78.55;98365.63;5065222;28;20114;-62
2022/01/25 01:59:16;;;;;;;14.70;5.05;;;;;;;-11.88;76.99;98358.94;5064937;28;20049;-59
2022/01/25 02:01:46;;;;;;;19.08;6.63;;;;;;;-12.43;75.70;98251.44;5065230;28;20131;-59
2022/01/25 02:04:16;;;;;;;23.23;8.38;;;;;;;-11.86;77.25;98340.88;5065164;28;20067;-59
2022/01/25 02:06:43;;;;;;;13.50;5.85;;;;;;;-11.65;78.27;98332.75;5063791;28;20503;-60
2022/01/25 02:09:11;;;;;;;15.75;6.72;;;;;;;-11.87;77.75;98267.09;5065346;28;20052;-59
2022/01/25 02:11:38;;;;;;;8.27;4.80;;;;;;;-11.58;74.95;98300.69;5064930;28;20053;-60
2022/01/25 02:14:09;;;;;;;25.98;5.78;;;;;;;-11.44;75.15;98327.25;5064731;28;20064;-59
2022/01/25 02:24:43;;;;;;;32.58;11.90;;;;;;;-11.50;73.04;98309.34;5064900;28;20048;-59
2022/01/25 02:27:10;;;;;;;22.25;6.97;;;;;;;-11.36;71.67;98305.69;5064849;28;20059;-63
2022/01/25 02:29:38;;;;;;;8.02;1.75;;;;;;;-12.27;72.97;98316.00;5064368;28;20065;-61
2022/01/25 02:32:06;;;;;;;4.72;2.38;;;;;;;-12.71;75.22;98318.13;5064603;28;20044;-60
2022/01/25 02:34:34;;;;;;;3.50;2.80;;;;;;;-12.96;77.51;98330.22;5063321;28;20455;-60
2022/01/25 02:37:05;;;;;;;10.65;3.63;;;;;;;-13.38;76.71;98181.03;5062844;28;20131;-60
2022/01/25 02:39:33;;;;;;;15.30;4.00;;;;;;;-12.54;76.25;98303.50;5064817;28;20076;-60
2022/01/25 02:42:00;;;;;;;9.43;4.10;;;;;;;-12.35;75.27;98292.13;5063866;28;20503;-61
2022/01/25 02:44:29;;;;;;;13.63;4.13;;;;;;;-12.23;74.54;98308.44;5064778;28;20083;-60
2022/01/25 02:49:30;;;;;;;23.13;5.78;;;;;;;-12.28;74.19;98276.97;5064268;28;20057;-61
2022/01/25 02:51:56;;;;;;;14.65;5.22;;;;;;;-12.05;74.37;98293.53;5064166;28;20056;-63
2022/01/25 02:54:23;;;;;;;44.70;13.27;;;;;;;-11.91;74.69;98284.56;5081388;28;20564;-60
2022/01/25 02:56:50;;;;;;;93.97;25.98;;;;;;;-11.82;75.99;98272.69;5082564;28;20507;-61
2022/01/25 02:59:17;;;;;;;74.57;24.65;;;;;;;-11.53;77.39;98271.50;5082869;28;20506;-60
2022/01/25 03:01:46;;;;;;;41.95;15.00;;;;;;;-11.44;76.02;98281.81;5083494;28;20055;-61
2022/01/25 03:04:15;;;;;;;39.40;12.48;;;;;;;-11.41;74.94;98265.38;5082540;28;20156;-60
2022/01/25 03:06:43;;;;;;;32.80;12.57;;;;;;;-11.34;75.33;98263.56;5084122;28;20563;-61
2022/01/25 03:09:10;;;;;;;37.13;13.27;;;;;;;-11.11;74.66;98255.97;5084087;28;20052;-61
2022/01/25 03:11:36;;;;;;;46.38;15.32;;;;;;;-11.02;74.82;98254.72;5084097;28;20052;-61
2022/01/25 03:14:08;;;;;;;24.85;11.18;;;;;;;-11.19;72.67;98199.22;5083698;28;20514;-62
2022/01/25 03:16:43;;;;;;;58.63;20.65;;;;;;;-11.06;72.89;98256.19;5084033;28;20048;-62
2022/01/25 03:22:06;;;;;;;46.88;15.45;;;;;;;-10.71;75.18;98239.91;5083558;28;20066;-60
2022/01/25 03:24:33;;;;;;;43.85;15.85;;;;;;;-11.20;73.47;98181.50;5083595;28;20439;-61
2022/01/25 03:27:00;;;;;;;44.58;14.70;;;;;;;-11.71;74.74;98253.41;5083611;28;20134;-60
2022/01/25 03:29:26;;;;;;;57.47;18.25;;;;;;;-11.17;76.92;98232.72;5083796;28;20055;-61
2022/01/25 03:31:53;;;;;;;45.65;15.43;;;;;;;-10.84;75.78;98240.75;5083841;28;20050;-60
2022/01/25 03:34:20;;;;;;;39.35;13.95;;;;;;;-10.76;75.22;98243.22;5083880;28;20047;-61
2022/01/25 03:36:47;;;;;;;35.55;12.98;;;;;;;-11.10;75.94;98188.09;5084010;28;20482;-60
2022/01/25 03:39:13;;;;;;;27.48;8.32;;;;;;;-11.50;76.46;98084.06;5082349;28;20048;-61
2022/01/25 03:41:40;;;;;;;20.08;7.28;;;;;;;-10.47;75.54;98209.84;5083671;28;20051;-61
2022/01/25 03:44:07;;;;;;;16.17;7.35;;;;;;;-10.25;73.69;98238.00;5081972;28;20056;-60
2022/01/25 03:51:53;;;;;;;24.05;8.85;;;;;;;-10.64;74.55;98155.13;5083449;28;20671;-61
2022/01/25 03:54:20;;;;;;;14.82;5.30;;;;;;;-10.09;72.36;98226.81;5065702;28;20144;-60
2022/01/25 03:56:47;;;;;;;17.15;7.30;;;;;;;-10.32;72.00;98170.25;5062986;28;20151;-60
2022/01/25 03:59:14;;;;;;;25.20;8.48;;;;;;;-10.04;73.45;98217.09;5063225;28;20048;-61
2022/01/25 04:01:40;;;;;;;21.73;7.65;;;;;;;-10.10;73.46;98222.50;5063271;28;20432;-64
2022/01/25 04:04:13;;;;;;;17.45;5.82;;;;;;;-10.01;73.29;98215.84;5063259;28;20167;-60
2022/01/25 04:06:44;;;;;;;20.73;6.85;;;;;;;-9.96;73.57;98229.44;5062961;28;20129;-62
2022/01/25 04:09:10;;;;;;;19.25;5.65;;;;;;;-10.04;73.16;98221.63;5063179;28;20056;-60
2022/01/25 04:11:37;;;;;;;17.00;7.63;;;;;;;-10.14;72.50;98199.84;5063118;28;20056;-61
2022/01/25 04:14:04;;;;;;;19.38;7.20;;;;;;;-9.82;73.66;98207.72;5065759;28;20131;-61
2022/01/25 04:16:40;;;;;;;25.35;7.95;;;;;;;-9.72;73.54;98209.97;5066367;28;20131;-61
2022/01/25 04:19:18;;;;;;;19.95;6.97;;;;;;;-9.95;72.49;98161.41;5067501;28;20049;-62
2022/01/25 04:24:43;;;;;;;24.55;6.38;;;;;;;-9.58;70.85;98201.59;5067452;28;20509;-61
2022/01/25 04:27:18;;;;;;;28.38;10.00;;;;;;;-9.22;71.50;98222.44;5066573;28;20052;-61
2022/01/25 04:29:44;;;;;;;27.77;8.80;;;;;;;-9.47;71.35;98202.81;5065527;28;20514;-61
2022/01/25 04:32:13;;;;;;;25.95;9.57;;;;;;;-9.31;71.01;98218.38;5066921;28;20405;-62
2022/01/25 04:34:47;;;;;;;29.08;9.32;;;;;;;-9.29;70.39;98210.91;5065951;28;20052;-62
2022/01/25 04:56:06;;;;;;;60.72;21.50;;;;;;;-9.72;72.62;98114.28;5086952;28;20061;-62
2022/01/25 04:59:19;;;;;;;75.88;24.92;;;;;;;-9.28;72.83;98184.94;5060307;28;20541;-62
2022/01/25 05:01:31;;;;;;;57.85;19.58;;;;;;;-9.57;72.05;98159.53;5085159;28;20050;-63
2022/01/25 05:04:04;;;;;;;64.97;22.70;;;;;;;-9.36;70.63;98175.28;5084698;28;20136;-61
2022/01/25 05:06:32;;;;;;;52.00;17.95;;;;;;;-9.43;70.89;98187.91;5086368;28;20063;-62
2022/01/25 05:09:08;;;;;;;50.38;17.58;;;;;;;-10.28;71.01;98085.78;5086279;28;20075;-61
2022/01/25 05:11:37;;;;;;;23.98;10.85;;;;;;;-9.86;72.88;98192.28;5086436;28;20096;-61
2022/01/25 05:16:38;;;;;;;18.70;8.00;;;;;;;-10.37;73.30;98191.50;5086382;28;20055;-61
2022/01/25 05:24:21;;;;;;;23.48;8.95;;;;;;;-10.44;72.71;98137.13;5085056;28;20056;-61
2022/01/25 05:26:48;;;;;;;32.33;12.95;;;;;;;-10.15;73.91;98176.78;5085641;28;20574;-61
2022/01/25 05:29:15;;;;;;;32.13;13.95;;;;;;;-10.44;74.41;98099.66;5084223;28;20040;-61
2022/01/25 05:31:42;;;;;;;78.78;26.92;;;;;;;-10.57;74.26;98070.28;5084037;28;20058;-64
2022/01/25 05:34:09;;;;;;;47.80;18.20;;;;;;;-10.08;73.83;98137.38;5084594;28;20568;-62
2022/01/25 05:36:36;;;;;;;41.42;16.45;;;;;;;-10.46;73.70;98089.16;5085403;28;20059;-62
2022/01/25 05:39:12;;;;;;;63.28;24.95;;;;;;;-9.86;74.55;98155.59;5084377;28;20055;-61
2022/01/25 05:41:40;;;;;;;90.72;30.55;;;;;;;-9.77;74.86;98148.13;5084104;28;20059;-63
2022/01/25 05:44:58;;;;;;;121.10;43.05;;;;;;;-9.70;74.92;98138.19;5085718;28;20077;-61
2022/01/25 05:49:24;;;;;;;163.02;58.30;;;;;;;-9.56;72.90;98212.94;5085429;28;20594;-63
2022/01/25 05:51:51;;;;;;;156.48;53.92;;;;;;;-9.44;72.72;98144.19;5085607;28;20561;-61
2022/01/25 05:54:18;;;;;;;34.47;15.45;;;;;;;-10.69;72.76;98104.06;5071140;28;20394;-60
2022/01/25 05:56:48;;;;;;;58.38;14.82;;;;;;;-11.22;74.71;98109.53;5066046;28;20665;-62
2022/01/25 05:59:14;;;;;;;43.80;15.07;;;;;;;-10.33;73.94;98163.25;5064997;28;20049;-62
2022/01/25 06:01:41;;;;;;;23.77;10.27;;;;;;;-11.83;72.98;97890.97;5064953;28;20059;-62
2022/01/25 06:04:08;;;;;;;23.63;7.90;;;;;;;-10.62;72.47;98126.31;5064836;28;20060;-63
2022/01/25 06:06:34;;;;;;;30.63;12.05;;;;;;;-10.13;73.08;98164.81;5064917;28;20055;-62
2022/01/25 06:09:01;;;;;;;50.72;17.20;;;;;;;-9.96;73.60;98187.41;5065432;28;20044;-65
2022/01/25 06:11:28;;;;;;;85.10;31.25;;;;;;;-9.89;73.01;98165.91;5064931;28;20507;-63
2022/01/25 06:13:55;;;;;;;116.90;35.22;;;;;;;-10.02;74.36;98144.56;5064722;28;20052;-62
2022/01/25 06:16:23;;;;;;;95.45;38.47;;;;;;;-10.24;75.65;98065.59;5064908;28;20052;-63
2022/01/25 06:18:50;;;;;;;70.10;30.50;;;;;;;-9.44;73.54;98172.88;5064488;28;20064;-63
2022/01/25 06:21:16;;;;;;;145.50;51.53;;;;;;;-9.38;72.59;98172.00;5062930;28;20056;-63
2022/01/25 06:23:43;;;;;;;158.50;56.95;;;;;;;-9.15;73.45;98169.53;5063157;28;20052;-62
2022/01/25 06:26:10;;;;;;;93.07;38.88;;;;;;;-9.01;72.87;98165.75;5064781;28;20059;-63
2022/01/25 06:28:37;;;;;;;118.97;45.22;;;;;;;-9.23;72.14;98097.41;5064430;28;20048;-63
2022/01/25 06:31:03;;;;;;;115.22;43.60;;;;;;;-8.73;71.19;98141.94;5064286;28;20465;-64
2022/01/25 06:33:30;;;;;;;119.15;41.83;;;;;;;-8.54;70.94;98140.91;5064270;28;20157;-62
2022/01/25 06:35:57;;;;;;;170.82;60.30;;;;;;;-8.48;70.89;98123.91;5063795;28;20063;-64
2022/01/25 06:38:24;;;;;;;135.95;48.33;;;;;;;-8.00;70.51;98148.91;5064325;28;20563;-63
2022/01/25 06:40:50;;;;;;;124.55;40.33;;;;;;;-7.92;70.24;98113.66;5062970;28;20053;-62
2022/01/25 06:43:17;;;;;;;116.53;40.60;;;;;;;-7.92;69.65;98081.41;5063208;28;20408;-63
2022/01/25 06:45:46;;;;;;;59.97;23.52;;;;;;;-7.82;67.15;98087.06;5064645;28;20457;-62
2022/01/25 06:48:13;;;;;;;48.28;17.92;;;;;;;-7.56;67.12;98107.38;5064429;28;20573;-62
2022/01/25 06:50:39;;;;;;;35.95;15.48;;;;;;;-9.81;65.85;97702.94;5063278;28;20102;-62
2022/01/25 06:53:06;;;;;;;43.88;18.35;;;;;;;-7.53;66.41;98073.81;5070018;28;20446;-63
2022/01/25 06:55:38;;;;;;;59.05;22.00;;;;;;;-7.09;66.08;98140.56;5082953;28;20133;-64
2022/01/25 06:58:06;;;;;;;65.95;24.50;;;;;;;-7.15;66.03;98136.94;5084845;28;20048;-63
2022/01/25 07:00:33;;;;;;;69.20;25.20;;;;;;;-6.98;65.38;98120.91;5083558;28;20051;-62
2022/01/25 07:02:59;;;;;;;63.05;23.40;;;;;;;-6.79;64.34;98141.31;5082990;28;20059;-63
2022/01/25 07:05:27;;;;;;;27.98;11.20;;;;;;;-6.83;63.38;98140.16;5082404;28;20491;-64
2022/01/25 07:07:54;;;;;;;37.95;13.48;;;;;;;-7.23;62.41;98061.09;5084261;28;20059;-64
2022/01/25 07:10:22;;;;;;;33.60;11.35;;;;;;;-9.66;60.78;97740.06;5076897;28;20049;-61
2022/01/25 07:12:49;;;;;;;28.83;11.05;;;;;;;-7.24;61.29;98091.75;5064214;28;20492;-62
2022/01/25 07:15:16;;;;;;;31.08;12.55;;;;;;;-7.72;62.24;97980.81;5071513;28;20062;-60
2022/01/25 07:17:43;;;;;;;43.03;16.55;;;;;;;-6.99;61.92;98086.97;5063519;28;20058;-62
2022/01/25 07:20:12;;;;;;;50.38;16.60;;;;;;;-6.82;62.47;98093.31;5063802;28;20621;-61
2022/01/25 07:22:40;;;;;;;62.40;23.63;;;;;;;-6.85;61.91;98066.84;5063767;28;20496;-62
2022/01/25 07:25:10;;;;;;;64.55;25.15;;;;;;;-6.63;63.08;98070.56;5063919;28;20529;-61
2022/01/25 07:27:37;;;;;;;69.00;22.58;;;;;;;-6.37;62.97;98043.13;5071966;28;20041;-60
2022/01/25 07:30:05;;;;;;;67.70;22.33;;;;;;;-7.10;64.28;97916.38;5065765;28;20404;-57
2022/01/25 07:32:32;;;;;;;51.13;19.77;;;;;;;-5.77;64.85;98103.56;5074902;28;20048;-65
2022/01/25 07:35:03;;;;;;;55.50;18.83;;;;;;;-6.05;62.91;98073.94;5068037;28;20048;-58
2022/01/25 07:37:30;;;;;;;83.85;28.15;;;;;;;-5.91;62.58;98123.84;5071707;28;20052;-60
2022/01/25 07:39:57;;;;;;;93.05;34.10;;;;;;;-5.53;61.92;98067.34;5062989;28;20045;-67
2022/01/25 07:42:25;;;;;;;68.18;26.13;;;;;;;-5.27;60.70;98107.22;5062626;28;20128;-58
2022/01/25 07:44:52;;;;;;;72.07;26.77;;;;;;;-6.02;63.36;98072.66;5063631;28;20481;-57
2022/01/25 07:47:19;;;;;;;85.25;29.50;;;;;;;-5.48;62.67;98064.72;5079543;28;20074;-58
2022/01/25 07:49:46;;;;;;;84.53;33.20;;;;;;;-4.67;60.03;98105.50;5081951;28;20055;-67
2022/01/25 07:52:19;;;;;;;85.32;30.90;;;;;;;-4.39;59.06;98092.94;5080548;28;20052;-60
2022/01/25 07:54:46;;;;;;;100.32;36.08;;;;;;;-4.42;58.92;98098.81;5066178;28;20059;-63
2022/01/25 07:57:13;;;;;;;97.07;35.75;;;;;;;-4.23;59.35;98100.16;5063418;28;20586;-59
2022/01/25 07:59:39;;;;;;;106.25;37.92;;;;;;;-4.96;60.15;98078.81;5063212;28;20060;-61
2022/01/25 08:02:06;;;;;;;113.03;42.42;;;;;;;-5.26;62.03;98057.56;5068626;28;20040;-64
2022/01/25 08:04:47;;;;;;;63.97;27.35;;;;;;;-4.57;60.59;98071.56;5063602;28;20052;-57
2022/01/25 08:07:28;;;;;;;53.13;18.10;;;;;;;-4.28;58.64;98102.81;5056618;28;20063;-69
2022/01/25 08:10:13;;;;;;;46.92;18.42;;;;;;;-4.16;58.22;98092.69;5061370;28;20048;-60
2022/01/25 08:13:08;;;;;;;43.05;18.83;;;;;;;-4.09;57.92;98096.00;5051036;28;20053;-59
2022/01/25 08:15:49;;;;;;;39.10;16.63;;;;;;;-4.98;56.98;97929.72;4966666;28;20058;-64
2022/01/25 08:18:33;;;;;;;34.08;11.80;;;;;;;-4.53;57.00;98105.13;4981134;28;20181;-60
2022/01/25 08:21:32;;;;;;;25.25;9.48;;;;;;;-4.90;56.74;98072.44;4977605;28;20062;-61
2022/01/25 08:24:05;;;;;;;21.67;8.00;;;;;;;-5.39;55.64;97890.50;4994407;28;20178;-61
2022/01/25 08:26:47;;;;;;;22.95;9.23;;;;;;;-4.00;55.22;98100.72;4999542;28;20598;-61
2022/01/25 08:29:28;;;;;;;28.42;12.25;;;;;;;-3.74;55.37;98107.25;4970231;28;20145;-60
2022/01/25 08:32:01;;;;;;;34.92;12.65;;;;;;;-4.13;55.32;97982.09;4999600;28;20081;-60
2022/01/25 08:34:47;;;;;;;25.90;9.98;;;;;;;-5.17;52.33;97796.06;4965037;28;20060;-60
2022/01/25 08:37:40;;;;;;;28.47;10.30;;;;;;;-3.26;52.17;98039.53;4964809;28;20652;-61
2022/01/25 08:40:15;;;;;;;26.58;8.75;;;;;;;-3.05;51.47;98057.56;4994565;28;20328;-61
2022/01/25 08:42:46;;;;;;;28.77;10.20;;;;;;;-2.56;50.38;98096.19;4999411;28;20076;-64
2022/01/25 08:45:27;;;;;;;22.73;9.35;;;;;;;-4.83;49.73;97690.28;5000207;28;20061;-63
2022/01/25 08:48:02;;;;;;;23.73;9.68;;;;;;;-2.07;49.40;98090.22;4999940;28;20414;-58
2022/01/25 08:50:53;;;;;;;32.20;11.30;;;;;;;-2.20;49.71;98101.56;5000081;28;20065;-64
2022/01/25 08:53:40;;;;;;;40.33;14.15;;;;;;;-2.86;49.44;97907.00;4922762;29;20659;-63
2022/01/25 08:56:29;;;;;;;27.15;10.60;;;;;;;-1.96;48.68;98091.09;4988909;28;20511;-60
2022/01/25 08:59:28;;;;;;;26.92;8.70;;;;;;;-3.14;50.64;98057.25;4956027;28;20058;-63
2022/01/25 09:01:55;;;;;;;25.92;9.23;;;;;;;-3.35;52.38;98085.22;4982901;28;20065;-58
2022/01/25 09:04:22;;;;;;;23.45;9.18;;;;;;;-3.23;52.73;98053.38;4982767;28;20065;-60
2022/01/25 09:06:49;;;;;;;23.55;7.80;;;;;;;-2.68;51.08;98061.09;4966294;28;20062;-62
2022/01/25 09:09:17;;;;;;;25.25;9.50;;;;;;;-2.67;51.31;98073.56;4965075;28;20055;-62
2022/01/25 09:11:44;;;;;;;22.27;9.20;;;;;;;-2.60;51.18;98033.50;4963904;28;20054;-63
2022/01/25 09:14:11;;;;;;;28.17;10.85;;;;;;;-2.47;50.93;98052.03;4964086;28;20135;-65
2022/01/25 09:16:38;;;;;;;31.30;12.30;;;;;;;-2.97;51.01;97948.69;4964520;28;20054;-63
2022/01/25 09:19:06;;;;;;;37.70;13.45;;;;;;;-2.17;51.11;98046.75;4963821;28;20054;-64
2022/01/25 09:21:33;;;;;;;31.73;11.48;;;;;;;-2.15;51.12;98028.28;4964001;28;20051;-62
2022/01/25 09:24:01;;;;;;;35.47;13.55;;;;;;;-2.03;50.39;98037.06;4963891;28;20384;-63
2022/01/25 09:26:28;;;;;;;31.00;13.38;;;;;;;-2.36;50.14;97966.91;4963666;28;20137;-60
2022/01/25 09:28:57;;;;;;;29.05;11.27;;;;;;;-2.12;50.25;98033.19;4975818;28;20062;-61
2022/01/25 09:31:24;;;;;;;32.67;11.70;;;;;;;-2.75;50.31;97991.94;4991994;28;20057;-60
2022/01/25 09:33:51;;;;;;;21.75;9.38;;;;;;;-2.77;50.54;98010.34;5055654;28;20642;-59
2022/01/25 09:36:18;;;;;;;20.38;8.27;;;;;;;-3.07;50.31;97981.16;5067801;28;20368;-60
2022/01/25 09:38:45;;;;;;;24.00;8.63;;;;;;;-2.71;51.16;98031.81;5075125;28;20072;-63
2022/01/25 09:41:12;;;;;;;24.55;9.50;;;;;;;-3.18;52.02;98039.84;5074229;28;20049;-60
2022/01/25 09:43:39;;;;;;;27.70;10.52;;;;;;;-3.71;53.90;98039.09;5072555;28;20054;-62
2022/01/25 09:46:05;;;;;;;17.58;7.65;;;;;;;-4.23;53.96;98043.34;5084005;28;20094;-63
2022/01/25 09:48:32;;;;;;;32.80;12.15;;;;;;;-6.35;54.30;97631.38;5082952;28;20130;-60
2022/01/25 09:50:59;;;;;;;25.10;10.02;;;;;;;-3.83;53.83;98041.13;5077986;28;20161;-64
2022/01/25 09:53:26;;;;;;;19.55;8.77;;;;;;;-4.59;54.55;97981.81;5063303;28;20052;-60
2022/01/25 09:55:53;;;;;;;22.08;9.45;;;;;;;-4.63;54.88;98003.09;5063359;28;20114;-55
2022/01/25 09:58:20;;;;;;;27.98;10.35;;;;;;;-4.15;53.87;98010.47;5063967;28;20060;-58
2022/01/25 10:00:49;;;;;;;31.10;11.38;;;;;;;-3.96;51.76;97999.06;5071643;28;20383;-61
2022/01/25 10:03:33;;;;;;;28.58;11.05;;;;;;;-3.35;51.43;98000.47;5078584;28;20120;-61
2022/01/25 10:06:02;;;;;;;26.48;10.27;;;;;;;-3.02;50.79;97996.63;5063410;28;20139;-62
2022/01/25 10:08:35;;;;;;;29.83;10.95;;;;;;;-3.26;50.62;97953.66;5065459;28;20110;-62
2022/01/25 10:11:06;;;;;;;;;;;;;;;-2.34;50.78;97997.28;5063045;28;20087;-62
2022/01/25 10:13:38;;;;;;;36.70;14.07;;;;;;;-3.17;50.67;97794.16;5063072;28;19924;-63
2022/01/25 10:16:04;;;;;;;34.60;14.65;;;;;;;-1.36;49.82;97992.66;5064378;28;20086;-62
2022/01/25 10:18:43;;;;;;;40.53;13.93;;;;;;;-1.02;49.26;97980.97;5064935;28;20052;-64
2022/01/25 10:21:22;;;;;;;21.77;10.38;;;;;;;-0.80;46.28;97984.19;5065063;28;20522;-62
2022/01/25 10:24:04;;;;;;;23.42;9.23;;;;;;;-0.51;45.76;97962.63;5063000;28;20059;-63
2022/01/25 10:26:33;;;;;;;28.45;9.95;;;;;;;-0.82;44.25;97846.88;5063578;28;20076;-62
2022/01/25 10:29:13;;;;;;;39.28;16.15;;;;;;;0.16;45.18;97924.72;5062802;28;20045;-63
2022/01/25 10:31:42;;;;;;;56.13;23.67;;;;;;;0.52;44.76;97961.53;5062860;28;20052;-61
2022/01/25 10:34:11;;;;;;;34.63;16.23;;;;;;;0.85;45.41;97941.66;5064797;28;20063;-63
2022/01/25 10:36:48;;;;;;;26.38;11.27;;;;;;;0.94;44.25;97914.56;5063346;28;20302;-62
2022/01/25 10:39:36;;;;;;;33.13;12.40;;;;;;;1.26;45.44;97929.25;5063774;28;20135;-62
2022/01/25 10:42:10;;;;;;;39.15;15.85;;;;;;;1.22;45.28;97928.19;5064081;28;20613;-61
2022/01/25 10:44:51;;;;;;;44.05;16.02;;;;;;;1.55;43.29;97921.81;5064150;28;20466;-61
2022/01/25 10:47:21;;;;;;;20.70;8.00;;;;;;;1.51;40.01;97920.78;5062848;28;20059;-62
2022/01/25 10:49:50;;;;;;;21.48;7.85;;;;;;;1.11;40.44;97934.84;5064308;28;20510;-60
2022/01/25 10:52:24;;;;;;;19.73;8.60;;;;;;;1.02;40.78;97925.69;5076586;28;20120;-63
2022/01/25 10:54:51;;;;;;;20.50;9.07;;;;;;;1.15;41.14;97916.81;5070612;28;20043;-63
2022/01/25 10:57:20;;;;;;;28.55;12.27;;;;;;;1.32;40.82;97913.63;5081745;28;20348;-62
2022/01/25 11:00:00;;;;;;;17.33;8.68;;;;;;;1.45;41.80;97905.53;5073743;28;20059;-60
2022/01/25 11:02:28;;;;;;;30.83;10.18;;;;;;;0.44;41.40;97787.75;5091992;28;20044;-60
2022/01/25 11:05:09;;;;;;;21.80;9.63;;;;;;;1.69;40.85;97891.91;5073258;28;20143;-62
2022/01/25 11:07:44;;;;;;;22.20;9.93;;;;;;;1.57;41.19;97853.28;5083980;28;20052;-62
2022/01/25 11:10:16;;;;;;;20.92;9.32;;;;;;;1.85;40.11;97908.91;5083109;28;20074;-60
2022/01/25 11:12:59;;;;;;;42.88;16.60;;;;;;;2.02;38.51;97888.16;5062626;28;20044;-63
2022/01/25 11:15:33;;;;;;;20.25;8.68;;;;;;;2.09;39.18;97879.56;5074767;28;20617;-64
2022/01/25 11:18:00;;;;;;;22.52;9.60;;;;;;;1.73;38.89;97834.75;5067919;28;20131;-61
2022/01/25 11:20:28;;;;;;;20.38;9.40;;;;;;;2.11;39.19;97831.75;5063998;28;20515;-63
2022/01/25 11:22:56;;;;;;;13.60;6.28;;;;;;;2.33;35.91;97872.13;5074887;28;20052;-61
2022/01/25 11:25:23;;;;;;;16.55;6.88;;;;;;;2.50;38.38;97869.66;5074450;28;20056;-62
2022/01/25 11:27:52;;;;;;;11.40;4.72;;;;;;;2.49;35.32;97865.28;5074089;28;20501;-60
2022/01/25 11:30:20;;;;;;;10.93;5.60;;;;;;;1.74;35.97;97787.25;5065536;28;20431;-63
2022/01/25 11:32:49;;;;;;;11.48;3.92;;;;;;;2.27;36.34;97826.84;5080723;28;20078;-60
2022/01/25 11:35:22;;;;;;;13.00;5.55;;;;;;;2.09;36.46;97801.16;5083740;28;20048;-59
2022/01/25 11:37:51;;;;;;;15.23;6.50;;;;;;;1.60;37.16;97854.63;5083868;28;20086;-60
2022/01/25 11:40:31;;;;;;;21.60;8.30;;;;;;;1.38;38.23;97868.78;5083135;28;20151;-59
2022/01/25 11:43:10;;;;;;;14.93;6.80;;;;;;;1.22;37.70;97862.72;5078498;28;20443;-58
2022/01/25 11:45:48;;;;;;;16.33;5.50;;;;;;;0.62;38.68;97814.25;5063401;28;20056;-65
2022/01/25 11:48:35;;;;;;;12.90;4.53;;;;;;;0.15;38.33;97789.66;5062930;28;20048;-59
2022/01/25 11:51:05;;;;;;;40.47;12.52;;;;;;;1.00;38.80;97854.22;5079322;28;20577;-60
2022/01/25 11:53:39;;;;;;;20.13;10.07;;;;;;;1.03;39.25;97818.19;5069959;28;20049;-61
2022/01/25 11:56:09;;;;;;;8.50;3.50;;;;;;;1.05;39.70;97835.09;5081016;28;20060;-61
2022/01/25 11:58:37;;;;;;;12.18;4.50;;;;;;;0.54;38.43;97782.19;5063472;28;20052;-62
2022/01/25 12:01:19;;;;;;;11.95;4.32;;;;;;;0.81;38.94;97828.78;5064244;28;20075;-62
2022/01/25 12:03:50;;;;;;;13.07;5.15;;;;;;;0.81;39.58;97834.25;5069296;28;20055;-63
2022/01/25 12:06:31;;;;;;;13.93;6.18;;;;;;;0.99;40.31;97819.88;5075450;28;20105;-60
2022/01/25 12:09:31;;;;;;;19.13;7.75;;;;;;;1.37;39.85;97805.22;5069942;28;20044;-64
2022/01/25 12:12:07;;;;;;;11.60;4.95;;;;;;;0.29;40.00;97779.72;5063321;28;20889;-61
2022/01/25 12:14:51;;;;;;;14.30;4.55;;;;;;;1.20;40.28;97821.25;5070799;28;20055;-64
2022/01/25 12:17:26;;;;;;;12.07;3.95;;;;;;;1.32;39.97;97818.94;5064787;28;20131;-60
2022/01/25 12:19:58;;;;;;;12.95;4.43;;;;;;;1.49;38.70;97823.88;5063534;28;20485;-60
2022/01/25 12:22:26;;;;;;;9.32;3.78;;;;;;;1.13;38.83;97819.97;5061861;28;20045;-65
2022/01/25 12:25:12;;;;;;;12.98;5.10;;;;;;;1.39;39.19;97818.59;5074217;28;20052;-61
2022/01/25 12:28:00;;;;;;;9.68;4.28;;;;;;;0.65;37.98;97718.28;5069202;28;20533;-62
2022/01/25 12:30:38;;;;;;;10.43;5.22;;;;;;;1.23;38.89;97812.47;5063897;28;20045;-61
2022/01/25 12:33:08;;;;;;;10.85;5.18;;;;;;;1.13;39.17;97744.41;5071625;28;20053;-65
2022/01/25 12:35:40;;;;;;;9.85;4.55;;;;;;;1.56;38.03;97803.31;5067214;28;20491;-63
2022/01/25 12:38:38;;;;;;;15.60;6.18;;;;;;;1.66;39.14;97793.38;5072607;28;20048;-64
2022/01/25 12:41:12;;;;;;;10.95;5.53;;;;;;;1.81;39.05;97801.34;5075438;28;20127;-65
2022/01/25 12:43:48;;;;;;;13.75;5.35;;;;;;;2.01;37.54;97776.47;5069162;28;20067;-57
2022/01/25 12:46:18;;;;;;;10.82;5.50;;;;;;;1.60;38.04;97731.75;5085948;28;20060;-67
2022/01/25 12:48:48;;;;;;;15.95;6.28;;;;;;;2.14;37.97;97786.59;5083354;28;20123;-67
2022/01/25 12:51:24;;;;;;;14.02;6.47;;;;;;;2.14;38.11;97787.44;5085222;28;20048;-62
2022/01/25 12:53:54;;;;;;;14.73;6.40;;;;;;;0.03;38.63;97500.56;5086669;28;20070;-67
2022/01/25 12:56:27;;;;;;;17.85;8.35;;;;;;;2.02;39.14;97745.28;5085700;28;20162;-67
2022/01/25 12:59:03;;;;;;;26.17;9.85;;;;;;;1.91;38.63;97727.44;5080497;28;20048;-61
2022/01/25 13:01:30;;;;;;;23.90;9.05;;;;;;;2.37;38.57;97791.16;5079066;28;20434;-64
2022/01/25 13:04:02;;;;;;;15.48;6.80;;;;;;;2.48;39.02;97777.00;5083926;28;20052;-64
2022/01/25 13:06:33;;;;;;;22.20;9.02;;;;;;;2.57;38.60;97768.91;5075640;28;20076;-60
2022/01/25 13:09:09;;;;;;;56.50;20.67;;;;;;;2.45;37.79;97916.22;5076817;28;20053;-60
2022/01/25 13:11:57;;;;;;;18.40;7.32;;;;;;;2.22;39.77;97721.16;5066134;28;20431;-62
2022/01/25 13:14:46;;;;;;;35.60;13.93;;;;;;;2.47;38.50;97755.41;5076100;28;20519;-63
2022/01/25 13:17:17;;;;;;;26.60;11.43;;;;;;;2.46;39.73;97751.06;5067333;28;20056;-63
2022/01/25 13:19:51;;;;;;;16.77;7.13;;;;;;;1.24;39.08;97549.47;5072289;28;20063;-60
2022/01/25 13:22:25;;;;;;;14.77;6.85;;;;;;;1.52;36.80;97709.47;5073571;28;20055;-60
2022/01/25 13:27:46;;;;;;;11.23;3.55;;;;;;;1.23;37.52;97760.63;5086389;28;20047;-63
2022/01/25 13:33:02;;;;;;;13.57;5.97;;;;;;;1.46;38.45;97748.88;5068532;28;20152;-61
2022/01/25 13:35:34;;;;;;;12.45;4.82;;;;;;;1.20;39.38;97717.56;5067609;28;20044;-60
2022/01/25 13:38:19;;;;;;;10.73;5.22;;;;;;;0.99;38.08;97699.88;5067448;28;20052;-59